KISO/ISO METAR and TAF weather

Enter ICAO airport designator
Station Type Date Time Source
KISO METAR 2020/07/12 02:15 UTC NOAA

KISO 120215Z AUTO 18004KT 10SM CLR 25/23 A2986 RMK AO2 T02540230


Station Type Date Time Source
KISO Decoded METAR 2020/07/12 02:15 UTC NOAA

Kinston, Kinston Regional Jetport at Stallings Field, NC, United States (KISO) 35-20N 077-37W
Jul 11, 2020 - 10:15 PM EDT / 2020.07.12 0215 UTC
Wind: from the S (180 degrees) at 5 MPH (4 KT):0
Visibility: 10 mile(s):0
Sky conditions: clear
Temperature: 77.7 F (25.4 C)
Dew Point: 73.4 F (23.0 C)
Relative Humidity: 86%
Pressure (altimeter): 29.86 in. Hg (1011 hPa)
ob: KISO 120215Z AUTO 18004KT 10SM CLR 25/23 A2986 RMK AO2 T02540230
cycle: 2

Station Type Date Time Source
KISO TAF 2020/07/11 18:34 UTC NOAA

TAF KISO 111732Z 1118/1218 23006KT P6SM SCT035
FM112100 21007KT P6SM VCSH SCT050
TEMPO 1121/1124 4SM TS BKN050CB
FM120000 22005KT P6SM SCT100
FM121300 VRB03KT P6SM SCT070
FM121700 21006KT P6SM FEW250
AMD LTD TO CLD VIS AND WIND

Example: see airport list